createdAt,value
2019-05-02T00:02:24.124Z,11.92
2019-05-02T00:04:51.068Z,11.84
2019-05-02T00:07:21.806Z,11.99
2019-05-02T00:09:51.363Z,11.72
2019-05-02T00:12:22.018Z,11.55
2019-05-02T00:14:50.951Z,11.70
2019-05-02T00:17:25.679Z,11.66
2019-05-02T00:19:51.687Z,11.61
2019-05-02T00:22:20.426Z,11.83
2019-05-02T00:24:49.080Z,11.58
2019-05-02T00:27:17.861Z,11.52
2019-05-02T00:29:46.574Z,11.53
2019-05-02T00:32:18.365Z,11.68
2019-05-02T00:34:45.795Z,11.63
2019-05-02T00:37:19.051Z,11.57
2019-05-02T00:39:49.209Z,11.56
2019-05-02T00:42:17.603Z,11.49
2019-05-02T00:44:48.374Z,11.43
2019-05-02T00:47:23.244Z,11.38
2019-05-02T00:49:51.968Z,11.35
2019-05-02T00:52:21.934Z,11.28
2019-05-02T00:54:54.950Z,11.29
2019-05-02T00:57:21.809Z,11.33
2019-05-02T00:59:50.462Z,11.51
2019-05-02T01:02:20.871Z,11.57
2019-05-02T01:04:50.580Z,11.50
2019-05-02T01:07:20.328Z,11.47
2019-05-02T01:09:50.098Z,11.38
2019-05-02T01:12:26.246Z,11.33
2019-05-02T01:14:49.591Z,11.28
2019-05-02T01:17:20.060Z,11.23
2019-05-02T01:19:51.387Z,11.16
2019-05-02T01:22:19.228Z,11.11
2019-05-02T01:24:48.473Z,10.97
2019-05-02T01:27:24.528Z,10.90
2019-05-02T01:30:12.037Z,10.91
2019-05-02T01:33:01.407Z,10.89
2019-05-02T01:35:31.521Z,11.03
2019-05-02T01:38:18.126Z,11.01
2019-05-02T01:40:53.270Z,10.98
2019-05-02T01:43:23.992Z,11.01
2019-05-02T01:45:54.230Z,10.96
2019-05-02T01:48:23.181Z,11.03
2019-05-02T01:50:52.611Z,11.03
2019-05-02T01:53:22.112Z,11.01
2019-05-02T01:55:52.086Z,10.98
2019-05-02T01:58:22.920Z,10.92
2019-05-02T02:00:52.154Z,10.77
2019-05-02T02:03:20.912Z,10.73
2019-05-02T02:05:49.995Z,10.75
2019-05-02T02:08:19.534Z,10.76
2019-05-02T02:10:50.779Z,10.80
2019-05-02T02:13:18.934Z,10.89
2019-05-02T02:15:48.114Z,10.98
2019-05-02T02:18:22.185Z,11.01
2019-05-02T02:20:56.091Z,11.05
2019-05-02T02:23:29.076Z,11.18
2019-05-02T02:25:59.347Z,11.22
2019-05-02T02:28:32.100Z,11.18
2019-05-02T02:31:04.787Z,10.99
2019-05-02T02:33:29.059Z,10.95
2019-05-02T02:35:58.987Z,10.96
2019-05-02T02:38:33.557Z,10.76
2019-05-02T02:40:58.349Z,10.70
2019-05-02T02:43:34.371Z,10.64
2019-05-02T02:46:05.355Z,10.59
2019-05-02T02:48:40.447Z,10.56
2019-05-02T02:51:05.433Z,10.42
2019-05-02T02:53:35.664Z,10.37
2019-05-02T02:56:08.987Z,10.29
2019-05-02T02:58:45.194Z,10.25
2019-05-02T03:01:08.169Z,10.30
2019-05-02T03:03:37.810Z,10.24
2019-05-02T03:06:08.198Z,10.23
2019-05-02T03:08:45.135Z,10.25
2019-05-02T03:11:09.242Z,10.25
2019-05-02T03:13:52.678Z,10.22
2019-05-02T03:16:23.770Z,10.23
2019-05-02T03:18:52.533Z,10.35
2019-05-02T03:21:22.573Z,10.33
2019-05-02T03:24:01.809Z,10.26
2019-05-02T03:26:24.188Z,10.27
2019-05-02T03:28:58.560Z,10.38
2019-05-02T03:31:29.737Z,10.36
2019-05-02T03:34:00.177Z,10.36
2019-05-02T03:36:30.097Z,10.39
2019-05-02T03:38:59.415Z,10.46
2019-05-02T03:41:28.559Z,10.45
2019-05-02T03:44:10.572Z,10.57
2019-05-02T03:46:28.136Z,10.69
2019-05-02T03:49:05.781Z,10.58
2019-05-02T03:51:27.550Z,10.69
2019-05-02T03:54:06.328Z,10.59
2019-05-02T03:56:27.751Z,10.57
2019-05-02T03:58:58.210Z,10.70
2019-05-02T04:01:27.499Z,10.61
2019-05-02T04:03:56.259Z,10.72
2019-05-02T04:06:25.082Z,10.61
2019-05-02T04:09:00.064Z,10.51
2019-05-02T04:11:32.822Z,10.48
2019-05-02T04:13:57.598Z,10.51
2019-05-02T04:16:30.889Z,10.48
2019-05-02T04:19:02.017Z,10.47
2019-05-02T04:21:31.203Z,10.58
2019-05-02T04:24:12.789Z,10.65
2019-05-02T04:26:31.818Z,10.69
2019-05-02T04:29:00.623Z,10.68
2019-05-02T04:31:31.923Z,10.58
2019-05-02T04:34:00.335Z,10.40
2019-05-02T04:36:29.116Z,10.35
2019-05-02T04:38:59.562Z,10.27
2019-05-02T04:41:30.724Z,10.23
2019-05-02T04:44:01.520Z,10.19
2019-05-02T04:46:31.169Z,10.18
2019-05-02T04:49:00.316Z,10.21
2019-05-02T04:51:31.862Z,10.23
2019-05-02T04:53:59.458Z,10.22
2019-05-02T04:56:29.320Z,10.18
2019-05-02T04:59:01.439Z,10.26
2019-05-02T05:01:33.158Z,10.24
2019-05-02T05:04:02.980Z,10.33
2019-05-02T05:06:29.358Z,10.37
2019-05-02T05:08:58.583Z,10.40
2019-05-02T05:11:27.516Z,10.49
2019-05-02T05:13:59.325Z,10.68
2019-05-02T05:16:28.616Z,10.74
2019-05-02T05:18:57.811Z,10.71
2019-05-02T05:21:28.597Z,10.86
2019-05-02T05:24:01.312Z,10.86
2019-05-02T05:26:33.777Z,10.77
2019-05-02T05:29:01.911Z,10.92
2019-05-02T05:31:31.552Z,10.82
2019-05-02T05:34:00.740Z,10.91
2019-05-02T05:36:33.760Z,10.90
2019-05-02T05:39:02.956Z,10.76
2019-05-02T05:41:30.505Z,10.82
2019-05-02T05:43:59.149Z,10.82
2019-05-02T05:46:28.225Z,10.86
2019-05-02T05:48:58.325Z,10.93
2019-05-02T05:51:27.829Z,10.89
2019-05-02T05:54:02.819Z,10.81
2019-05-02T05:56:32.618Z,10.82
2019-05-02T05:58:59.333Z,10.99
2019-05-02T06:01:33.932Z,10.91
2019-05-02T06:04:00.168Z,10.87
2019-05-02T06:06:29.096Z,10.86
2019-05-02T06:08:58.294Z,10.99
2019-05-02T06:11:27.005Z,11.01
2019-05-02T06:13:55.715Z,11.13
2019-05-02T06:16:24.823Z,11.28
2019-05-02T06:18:53.536Z,11.46
2019-05-02T06:21:22.255Z,11.59
2019-05-02T06:23:51.492Z,11.76
2019-05-02T06:26:20.580Z,11.86
2019-05-02T06:28:49.302Z,12.06
2019-05-02T06:31:18.401Z,12.16
2019-05-02T06:33:47.121Z,12.38
2019-05-02T06:36:16.026Z,12.43
2019-05-02T06:38:44.782Z,12.57
2019-05-02T06:41:16.126Z,12.89
2019-05-02T06:43:46.551Z,13.08
2019-05-02T06:46:16.802Z,13.14
2019-05-02T06:48:48.282Z,13.33
2019-05-02T06:51:19.609Z,13.63
2019-05-02T06:53:48.971Z,13.99
2019-05-02T06:56:17.835Z,16.31
2019-05-02T06:58:46.549Z,19.00
2019-05-02T07:01:16.264Z,20.71
2019-05-02T07:03:47.530Z,22.08
2019-05-02T07:06:16.485Z,22.85
2019-05-02T07:08:46.153Z,23.44
2019-05-02T07:11:14.992Z,23.25
2019-05-02T07:13:43.849Z,22.46
2019-05-02T07:16:36.888Z,22.19
2019-05-02T07:18:51.399Z,22.69
2019-05-02T07:21:23.479Z,22.83
2019-05-02T07:23:53.626Z,22.32
2019-05-02T07:26:23.506Z,21.80
2019-05-02T07:28:52.352Z,21.83
2019-05-02T07:31:21.553Z,22.37
2019-05-02T07:33:50.580Z,23.50
2019-05-02T07:36:19.190Z,24.15
2019-05-02T07:38:50.121Z,24.55
2019-05-02T07:41:19.164Z,24.06
2019-05-02T07:43:52.171Z,23.58
2019-05-02T07:46:20.993Z,22.88
2019-05-02T07:48:54.662Z,22.21
2019-05-02T07:51:21.296Z,21.32
2019-05-02T07:53:50.042Z,21.29
2019-05-02T07:56:19.508Z,21.53
2019-05-02T07:58:48.393Z,21.47
2019-05-02T08:01:17.423Z,22.04
2019-05-02T08:03:46.249Z,22.79
2019-05-02T08:06:15.882Z,22.82
2019-05-02T08:08:44.910Z,21.64
2019-05-02T08:11:13.934Z,21.07
2019-05-02T08:13:42.685Z,21.04
2019-05-02T08:16:11.985Z,21.27
2019-05-02T08:18:41.102Z,21.37
2019-05-02T08:21:09.775Z,21.96
2019-05-02T08:23:39.951Z,22.49
2019-05-02T08:26:08.654Z,21.98
2019-05-02T08:28:39.255Z,21.93
2019-05-02T08:31:08.398Z,21.78
2019-05-02T08:33:37.036Z,21.81
2019-05-02T08:36:06.134Z,21.85
2019-05-02T08:38:35.288Z,22.60
2019-05-02T08:41:04.439Z,22.37
2019-05-02T08:43:33.542Z,22.11
2019-05-02T08:46:02.338Z,21.98
2019-05-02T08:48:31.076Z,22.64
2019-05-02T08:50:59.783Z,22.78
2019-05-02T08:53:29.010Z,23.04
2019-05-02T08:55:57.906Z,22.96
2019-05-02T08:58:27.217Z,22.46
2019-05-02T09:00:56.397Z,21.69
2019-05-02T09:03:26.201Z,20.89
2019-05-02T09:06:05.501Z,20.39
2019-05-02T09:08:27.264Z,19.79
2019-05-02T09:10:55.975Z,19.96
2019-05-02T09:13:29.079Z,20.36
2019-05-02T09:15:55.422Z,20.45
2019-05-02T09:18:30.038Z,19.95
2019-05-02T09:20:56.500Z,19.62
2019-05-02T09:23:27.554Z,19.19
2019-05-02T09:25:56.310Z,19.00
2019-05-02T09:28:25.554Z,18.90
2019-05-02T09:30:57.491Z,18.52
2019-05-02T09:33:25.479Z,18.26
2019-05-02T09:35:54.204Z,18.10
2019-05-02T09:38:23.454Z,17.90
2019-05-02T09:40:56.067Z,17.58
2019-05-02T09:43:22.965Z,17.83
2019-05-02T09:45:52.180Z,18.17
2019-05-02T09:48:22.864Z,18.39
2019-05-02T09:50:52.815Z,18.40
2019-05-02T09:53:25.528Z,18.47
2019-05-02T09:55:57.257Z,18.34
2019-05-02T09:58:24.061Z,18.21
2019-05-02T10:01:11.882Z,18.23
2019-05-02T10:03:42.338Z,18.47
2019-05-02T10:06:13.881Z,18.71
2019-05-02T10:08:45.486Z,18.96
2019-05-02T10:11:17.054Z,19.94
2019-05-02T10:13:43.649Z,20.63
2019-05-02T10:16:12.586Z,20.90
2019-05-02T10:18:43.120Z,20.92
2019-05-02T10:21:13.556Z,20.75
2019-05-02T10:23:42.767Z,20.44
2019-05-02T10:26:12.947Z,20.13
2019-05-02T10:28:49.564Z,19.50
2019-05-02T10:31:13.464Z,19.25
2019-05-02T10:33:42.143Z,19.17
2019-05-02T10:36:13.698Z,18.98
2019-05-02T10:38:42.752Z,18.86
2019-05-02T10:41:12.107Z,18.81
2019-05-02T10:43:42.335Z,18.71
2019-05-02T10:46:15.935Z,18.46
2019-05-02T10:48:48.997Z,18.42
2019-05-02T10:51:26.332Z,18.25
2019-05-02T10:53:56.545Z,18.01
2019-05-02T10:56:25.532Z,17.81
2019-05-02T10:58:54.457Z,17.54
2019-05-02T11:01:24.983Z,17.51
2019-05-02T11:03:55.716Z,17.47
2019-05-02T11:06:25.321Z,17.37
2019-05-02T11:08:54.340Z,17.45
2019-05-02T11:11:23.750Z,17.58
2019-05-02T11:14:05.631Z,17.56
2019-05-02T11:16:45.288Z,17.45
2019-05-02T11:19:24.785Z,17.55
2019-05-02T11:21:58.746Z,17.47
2019-05-02T11:24:23.911Z,17.53
2019-05-02T11:26:54.206Z,17.51
2019-05-02T11:29:23.180Z,17.61
2019-05-02T11:31:52.786Z,17.99
2019-05-02T11:34:22.270Z,18.26
2019-05-02T11:36:52.713Z,18.27
2019-05-02T11:39:31.549Z,18.21
2019-05-02T11:41:52.810Z,18.15
2019-05-02T11:44:22.618Z,18.40
2019-05-02T11:46:52.570Z,18.27
2019-05-02T11:49:22.774Z,18.25
2019-05-02T11:51:56.932Z,18.23
2019-05-02T11:54:22.832Z,18.13
2019-05-02T11:56:53.631Z,18.04
2019-05-02T11:59:28.238Z,17.66
2019-05-02T12:02:17.537Z,17.37
2019-05-02T12:04:47.442Z,17.33
2019-05-02T12:07:14.138Z,17.37
2019-05-02T12:09:55.465Z,17.58
2019-05-02T12:12:15.711Z,17.56
2019-05-02T12:14:44.789Z,17.58
2019-05-02T12:17:13.938Z,17.68
2019-05-02T12:19:42.728Z,17.94
2019-05-02T12:22:12.852Z,17.92
2019-05-02T12:24:45.307Z,17.99
2019-05-02T12:27:12.303Z,18.03
2019-05-02T12:29:42.387Z,17.84
2019-05-02T12:32:12.178Z,18.11
2019-05-02T12:34:42.073Z,18.09
2019-05-02T12:37:12.621Z,18.24
2019-05-02T12:39:42.520Z,18.26
2019-05-02T12:42:12.693Z,18.02
2019-05-02T12:44:42.596Z,18.10
2019-05-02T12:47:11.932Z,18.12
2019-05-02T12:49:42.448Z,18.14
2019-05-02T12:52:12.913Z,18.09
2019-05-02T12:54:42.073Z,18.09
2019-05-02T12:57:12.508Z,18.03
2019-05-02T12:59:42.477Z,18.01
2019-05-02T13:02:13.348Z,17.95
2019-05-02T13:04:42.301Z,17.72
2019-05-02T13:07:12.755Z,17.49
2019-05-02T13:09:42.100Z,17.43
2019-05-02T13:12:13.438Z,17.41
2019-05-02T13:14:42.429Z,17.25
2019-05-02T13:17:12.053Z,17.13
2019-05-02T13:19:48.871Z,17.05
2019-05-02T13:22:32.374Z,16.91
2019-05-02T13:25:02.520Z,16.88
2019-05-02T13:27:43.015Z,17.10
2019-05-02T13:30:03.359Z,17.08
2019-05-02T13:32:33.971Z,17.19
2019-05-02T13:35:12.835Z,17.16
2019-05-02T13:37:42.408Z,17.25
2019-05-02T13:40:26.580Z,17.24
2019-05-02T13:42:55.293Z,17.26
2019-05-02T13:45:34.800Z,17.37
2019-05-02T13:48:03.658Z,17.33
2019-05-02T13:50:32.377Z,17.41
2019-05-02T13:53:02.675Z,17.56
2019-05-02T13:55:36.233Z,17.72
2019-05-02T13:58:05.257Z,17.86
2019-05-02T14:00:36.082Z,17.90
2019-05-02T14:03:04.793Z,17.86
2019-05-02T14:05:33.800Z,17.92
2019-05-02T14:08:22.475Z,17.74
2019-05-02T14:10:58.800Z,17.70
2019-05-02T14:13:27.604Z,17.70
2019-05-02T14:15:56.661Z,17.78
2019-05-02T14:18:28.878Z,17.72
2019-05-02T14:20:55.911Z,17.81
2019-05-02T14:23:26.599Z,17.81
2019-05-02T14:25:55.328Z,17.87
2019-05-02T14:28:26.829Z,18.05
2019-05-02T14:30:54.874Z,18.22
2019-05-02T14:33:25.191Z,18.36
2019-05-02T14:35:54.160Z,18.42
2019-05-02T14:38:22.878Z,18.49
2019-05-02T14:40:53.166Z,18.57
2019-05-02T14:43:46.129Z,18.29
2019-05-02T14:46:12.553Z,18.11
2019-05-02T14:48:45.065Z,18.16
2019-05-02T14:51:16.717Z,17.87
2019-05-02T14:53:43.131Z,17.64
2019-05-02T14:56:16.696Z,17.46
2019-05-02T14:58:46.731Z,17.48
2019-05-02T15:01:17.140Z,17.37
2019-05-02T15:03:46.928Z,17.26
2019-05-02T15:06:16.169Z,17.05
2019-05-02T15:08:45.065Z,17.04
2019-05-02T15:11:14.373Z,17.00
2019-05-02T15:13:45.296Z,16.83
2019-05-02T15:16:17.543Z,16.88
2019-05-02T15:18:47.598Z,16.87
2019-05-02T15:21:23.103Z,16.79
2019-05-02T15:23:54.377Z,16.85
2019-05-02T15:26:26.408Z,16.83
2019-05-02T15:28:53.111Z,16.69
2019-05-02T15:31:29.179Z,16.92
2019-05-02T15:34:01.496Z,16.71
2019-05-02T15:36:29.513Z,16.70
2019-05-02T15:41:29.698Z,16.87
2019-05-02T15:43:58.470Z,16.71
2019-05-02T15:46:28.358Z,16.72
2019-05-02T15:49:01.749Z,16.88
2019-05-02T15:51:27.798Z,16.79
2019-05-02T15:54:06.044Z,16.64
2019-05-02T15:56:32.469Z,16.47
2019-05-02T15:59:06.207Z,16.37
2019-05-02T16:01:36.573Z,16.23
2019-05-02T16:04:07.658Z,16.14
2019-05-02T16:06:36.461Z,16.00
2019-05-02T16:09:06.876Z,16.02
2019-05-02T16:11:35.711Z,16.16
2019-05-02T16:14:04.522Z,16.19
2019-05-02T16:16:36.688Z,16.08
2019-05-02T16:19:05.445Z,15.97
2019-05-02T16:21:35.730Z,15.88
2019-05-02T16:24:22.507Z,15.86
2019-05-02T16:26:54.186Z,15.71
2019-05-02T16:29:28.097Z,15.51
2019-05-02T16:31:59.781Z,15.49
2019-05-02T16:34:31.711Z,15.57
2019-05-02T16:37:16.604Z,15.54
2019-05-02T16:39:49.383Z,15.48
2019-05-02T16:42:13.164Z,15.34
2019-05-02T16:44:42.927Z,15.25
2019-05-02T16:47:13.942Z,15.19
2019-05-02T16:49:42.862Z,15.23
2019-05-02T16:52:12.749Z,15.16
2019-05-02T16:54:43.833Z,15.09
2019-05-02T16:57:12.658Z,15.11
2019-05-02T16:59:42.611Z,15.07
2019-05-02T17:02:12.181Z,14.94
2019-05-02T17:04:42.900Z,14.93
2019-05-02T17:07:16.618Z,14.88
2019-05-02T17:09:46.821Z,14.64
2019-05-02T17:12:15.624Z,14.52
2019-05-02T17:14:53.549Z,14.38
2019-05-02T17:17:17.083Z,14.38
2019-05-02T17:19:45.813Z,14.39
2019-05-02T17:22:16.765Z,14.23
2019-05-02T17:24:44.937Z,14.24
2019-05-02T17:27:20.582Z,13.96
2019-05-02T17:29:45.775Z,14.03
2019-05-02T17:32:14.502Z,14.03
2019-05-02T17:34:43.212Z,13.85
2019-05-02T17:37:14.061Z,13.85
2019-05-02T17:39:46.046Z,13.83
2019-05-02T17:42:17.077Z,13.91
2019-05-02T17:44:45.509Z,13.93
2019-05-02T17:47:14.460Z,13.82
2019-05-02T17:49:43.276Z,13.71
2019-05-02T17:52:19.122Z,13.54
2019-05-02T17:54:47.116Z,13.43
2019-05-02T17:57:15.834Z,13.43
2019-05-02T17:59:45.211Z,13.44
2019-05-02T18:02:15.926Z,13.26
2019-05-02T18:04:46.542Z,13.16
2019-05-02T18:07:18.139Z,13.16
2019-05-02T18:09:46.458Z,13.18
2019-05-02T18:12:16.328Z,13.12
2019-05-02T18:14:46.321Z,13.25
2019-05-02T18:17:16.441Z,13.22
2019-05-02T18:19:45.226Z,13.13
2019-05-02T18:22:23.492Z,13.06
2019-05-02T18:24:46.515Z,13.30
2019-05-02T18:27:15.372Z,13.17
2019-05-02T18:29:45.683Z,13.34
2019-05-02T18:32:17.460Z,13.27
2019-05-02T18:34:45.008Z,13.20
2019-05-02T18:37:14.145Z,12.96
2019-05-02T18:39:49.875Z,12.97
2019-05-02T18:42:16.555Z,12.82
2019-05-02T18:44:48.220Z,12.90
2019-05-02T18:47:20.087Z,12.74
2019-05-02T18:49:46.528Z,12.64
2019-05-02T18:52:15.610Z,12.66
2019-05-02T18:54:47.396Z,12.72
2019-05-02T18:57:17.168Z,12.56
2019-05-02T18:59:46.591Z,12.56
2019-05-02T19:02:15.673Z,12.45
2019-05-02T19:04:44.533Z,12.41
2019-05-02T19:07:15.916Z,12.49
2019-05-02T19:09:51.204Z,12.42
2019-05-02T19:12:25.733Z,12.31
2019-05-02T19:14:47.488Z,12.57
2019-05-02T19:17:16.283Z,12.42
2019-05-02T19:19:46.831Z,12.35
2019-05-02T19:22:17.030Z,12.21
2019-05-02T19:24:46.383Z,12.10
2019-05-02T19:27:21.003Z,12.05
2019-05-02T19:29:48.407Z,12.01
2019-05-02T19:32:25.481Z,12.04
2019-05-02T19:34:48.589Z,11.87
2019-05-02T19:37:17.738Z,12.08
2019-05-02T19:39:48.867Z,11.93
2019-05-02T19:42:22.541Z,11.82
2019-05-02T19:44:52.836Z,11.73
2019-05-02T19:47:22.019Z,11.70
2019-05-02T19:49:52.293Z,11.58
2019-05-02T19:52:22.151Z,11.74
2019-05-02T19:54:51.902Z,11.57
2019-05-02T19:57:26.176Z,11.42
2019-05-02T19:59:57.137Z,11.32
2019-05-02T20:02:23.619Z,11.23
2019-05-02T20:04:52.329Z,11.23
2019-05-02T20:07:22.549Z,11.21
2019-05-02T20:09:52.416Z,11.16
2019-05-02T20:12:21.984Z,11.19
2019-05-02T20:14:51.452Z,11.23
2019-05-02T20:17:23.900Z,11.16
2019-05-02T20:19:52.948Z,11.14
2019-05-02T20:22:25.339Z,11.08
2019-05-02T20:25:00.253Z,11.02
2019-05-02T20:27:28.264Z,10.97
2019-05-02T20:29:56.641Z,10.91
2019-05-02T20:32:25.352Z,10.85
2019-05-02T20:34:54.144Z,10.82
2019-05-02T20:37:23.654Z,10.82
2019-05-02T20:39:53.805Z,10.76
2019-05-02T20:42:22.480Z,10.64
2019-05-02T20:44:52.777Z,10.59
2019-05-02T20:47:24.052Z,10.65
2019-05-02T20:49:53.168Z,10.63
2019-05-02T20:52:22.799Z,10.64
2019-05-02T20:54:52.426Z,10.62
2019-05-02T20:57:21.468Z,10.61
2019-05-02T20:59:52.588Z,10.68
2019-05-02T21:02:21.650Z,10.66
2019-05-02T21:04:52.160Z,10.69
2019-05-02T21:07:26.685Z,10.63
2019-05-02T21:10:03.073Z,10.57
2019-05-02T21:12:33.617Z,10.52
2019-05-02T21:15:02.471Z,10.45
2019-05-02T21:17:32.742Z,10.33
2019-05-02T21:20:02.298Z,10.31
2019-05-02T21:22:32.745Z,10.27
2019-05-02T21:25:02.894Z,10.22
2019-05-02T21:27:32.385Z,10.17
2019-05-02T21:30:01.418Z,10.14
2019-05-02T21:32:32.048Z,10.16
2019-05-02T21:35:02.745Z,10.22
2019-05-02T21:37:32.007Z,10.22
2019-05-02T21:40:02.666Z,10.26
2019-05-02T21:42:31.935Z,10.26
2019-05-02T21:45:02.432Z,10.29
2019-05-02T21:47:31.932Z,10.29
2019-05-02T21:50:03.045Z,10.33
2019-05-02T21:52:49.677Z,10.35
2019-05-02T21:55:23.526Z,10.33
2019-05-02T21:57:52.450Z,10.28
2019-05-02T22:00:43.021Z,10.30
2019-05-02T22:03:12.595Z,10.33
2019-05-02T22:05:42.335Z,10.36
2019-05-02T22:08:12.140Z,10.38
2019-05-02T22:10:42.646Z,10.41
2019-05-02T22:13:11.896Z,10.49
2019-05-02T22:15:42.101Z,10.52
2019-05-02T22:18:10.799Z,10.54
2019-05-02T22:20:39.442Z,10.57
2019-05-02T22:23:08.313Z,10.59
2019-05-02T22:25:37.507Z,10.62
2019-05-02T22:28:06.141Z,10.63
2019-05-02T22:30:35.192Z,10.66
2019-05-02T22:33:05.363Z,10.67
2019-05-02T22:35:34.086Z,10.68
2019-05-02T22:38:22.408Z,10.61
2019-05-02T22:40:52.684Z,10.59
2019-05-02T22:43:22.130Z,10.55
2019-05-02T22:45:51.620Z,10.55
2019-05-02T22:48:22.375Z,10.55
2019-05-02T22:50:52.251Z,10.51
2019-05-02T22:53:21.635Z,10.49
2019-05-02T22:55:51.773Z,10.55
2019-05-02T22:58:22.229Z,10.52
2019-05-02T23:00:52.277Z,10.52
2019-05-02T23:03:21.531Z,10.56
2019-05-02T23:05:52.703Z,10.57
2019-05-02T23:08:22.032Z,10.65
2019-05-02T23:10:51.941Z,10.70
2019-05-02T23:13:21.987Z,10.70
2019-05-02T23:15:52.175Z,10.76
2019-05-02T23:18:22.799Z,10.78
2019-05-02T23:20:52.586Z,10.78
2019-05-02T23:23:24.177Z,10.79
2019-05-02T23:26:06.606Z,10.77
2019-05-02T23:28:37.299Z,10.80
2019-05-02T23:31:06.947Z,10.79
2019-05-02T23:33:53.579Z,10.83
2019-05-02T23:36:22.542Z,10.84
2019-05-02T23:38:52.204Z,10.84
2019-05-02T23:41:22.101Z,10.81
2019-05-02T23:43:52.439Z,10.86
2019-05-02T23:46:22.389Z,10.85
2019-05-02T23:48:52.654Z,10.82
2019-05-02T23:51:22.613Z,10.81
2019-05-02T23:53:52.862Z,10.84
2019-05-02T23:56:23.022Z,10.82
2019-05-02T23:58:52.085Z,10.81
